• Join FlightAware (Why Join?)
  • Login
  • US Flag 
11:44AM EST


 

Airport Tracker/Info


-or-


 

Live Flight TrackerFlight Track Log ✈ EJA982 ✈ 25-May-2013 ✈ KHPN - KITH

Flight Track Log - Related Links

Times and Time Zones

All times are in EDT time to prevent confusion due to time zone crossing. See the EJA982 flight status page for this flight to view local times or setup timezone preferences in your user account.

Time Position Orientation Groundspeed Altitude Reporting Facility
EDT Latitude Longitude Course Direction KTS MPH feet Rate Location/Type
04:27PM 41.0833 -73.7833 270° West 209 241 4,300  Level New York TRACON
04:28PM 41.0833 -73.8667 270° West 250 288 7,500 3,200 Climbing New York TRACON
04:29PM 41.1000 -73.9500 285° West 251 289 10,700 2,612 Climbing New York TRACON
04:31PM 41.1439 -74.1022 291° West 299 344 13,900 2,359 Climbing New York Center
04:32PM 41.1636 -74.2133 283° West 338 389 16,400 2,168 Climbing New York Center
04:33PM 41.1881 -74.3633 282° West 368 423 18,200 1,488 Climbing New York Center
04:34PM 41.2425 -74.4906 300° West 385 443 19,400 900 Climbing New York Center
04:35PM 41.2997 -74.5903 307° West 400 460 20,000 295 Climbing New York Center
04:36PM 41.3744 -74.7217 307° West 410 472 20,000  Level New York Center
04:37PM 41.4433 -74.8419 307° West 415 478 20,000  Level New York Center
04:38PM 41.5119 -74.9681 306° West 420 483 20,000  Level New York Center
04:39PM 41.5844 -75.0947 307° West 426 490 20,000  Level New York Center
04:40PM 41.6528 -75.2183 307° West 426 490 20,000  Level New York Center
04:41PM 41.7211 -75.3369 308° West 415 478 20,000  Level New York Center
04:42PM 41.7869 -75.4611 305° West 415 478 20,000  Level New York Center
04:43PM 41.8550 -75.5856 306° West 415 478 20,000 -1,050 Level New York Center
04:44PM 41.9286 -75.7192 307° West 415 478 17,900 -2,231 Descending New York Center
04:45PM 41.9922 -75.8356 306° West 399 459 15,500 -2,083 Descending New York Center
04:46PM 42.0403 -75.9286 305° West 361 415 13,700 -1,831 Descending New York Center
04:47PM 42.0983 -76.0308 307° West 349 402 11,900 -2,051 Descending New York Center
04:48PM 42.1444 -76.1183 305° West 325 374 9,700 -1,450 Descending New York Center
04:49PM 42.1978 -76.1789 320° Northwest 279 321 9,000 -1,131 Descending New York Center
04:50PM 42.2497 -76.2306 324° Northwest 251 289 7,400 -2,244 Descending New York Center
04:51PM 42.3017 -76.2742 328° Northwest 236 272 4,400 -2,136 Descending New York Center
04:52PM 42.3581 -76.3156 332° Northwest 231 266 3,200 -769 Descending New York Center
04:53PM 42.4103 -76.3564 330° Northwest 219 252 2,900 -344 Descending New York Center
04:54PM 42.4422 -76.3872 325° Northwest 188 216 2,500 3,984 Descending New York Center
04:55PM 42.4900 -76.4336 324° Northwest 179 206 11,000 4,322 Climbing New York Center
04:56PM 42.5297 -76.4706 326° Northwest 179 206 11,000  Level New York Center
04:57PM 42.5694 -76.5108 323° Northwest 179 206 11,000  Level New York Center
04:58PM 42.6094 -76.5481 326° Northwest 179 206 11,000  Level New York Center
05:00PM 42.4914 -76.4587 156° South  Level Estimated